Time;durP1;ratioP1;P1;durP2;ratioP2;P2;SDS_P1;SDS_P2;PMS_P1;PMS_P2;Temp;Humidity;BMP_temperature;BMP_pressure;BME280_temperature;BME280_humidity;BME280_pressure;Samples;Min_cycle;Max_cycle;Signal;HPM_P1;HPM_P2
2022/09/22 01:45:00;;;;;;;;;;;;;;;;;;2379758;53;2444;-52
2022/09/22 01:47:36;;;;;;;;;;;;;;;;;;2199943;58;1303;-53
2022/09/22 01:50:12;;;;;;;;;;;;;;;;;;2199137;59;1731;-53
2022/09/22 01:52:46;;;;;;;;;;;;;;;;;;2198807;59;1331;-52
2022/09/22 01:55:22;;;;;;;;;;;;;;;;;;2198839;58;1990;-52
2022/09/22 01:57:58;;;;;;;;;;;;;;;;;;2195088;67;1135;-52
2022/09/22 02:00:34;;;;;;;;;;;;;;;;;;2194962;67;1092;-53
2022/09/22 02:03:10;;;;;;;;;;;;;;;;;;2195310;59;1170;-53
2022/09/22 02:05:46;;;;;;;;;;;;;;;;;;2195192;67;1270;-53
2022/09/22 02:08:22;;;;;;;;;;;;;;;;;;2194572;59;1294;-53
2022/09/22 02:10:57;;;;;;;;;;;;;;;;;;2194952;67;1349;-53
2022/09/22 02:13:30;;;;;;;;;;;;;;;;;;2195202;67;1937;-53
2022/09/22 02:16:08;;;;;;;;;;;;;;;;;;2196317;59;1254;-53
2022/09/22 02:18:44;;;;;;;;;;;;;;;;;;2195136;59;1093;-53
2022/09/22 02:21:18;;;;;;;;;;;;;;;;;;2195706;67;1158;-53
2022/09/22 02:23:51;;;;;;;;;;;;;;;;;;2195038;59;1346;-53
2022/09/22 02:26:27;;;;;;;;;;;;;;;;;;2196042;67;1635;-53
2022/09/22 02:29:04;;;;;;;;;;;;;;;;;;2195256;59;1266;-50
2022/09/22 02:31:41;;;;;;;;;;;;;;;;;;2195946;67;1225;-51
2022/09/22 02:34:14;;;;;;;;;;;;;;;;;;2195580;67;1997;-50
2022/09/22 02:36:51;;;;;;;;;;;;;;;;;;2196357;59;1231;-51
2022/09/22 02:39:28;;;;;;;;;;;;;;;;;;2195356;67;1199;-51
2022/09/22 02:42:11;;;;;;;;;;;;;;;;;;2195383;67;1181;-51
2022/09/22 02:44:47;;;;;;;;;;;;;;;;;;2195251;59;1244;-51
2022/09/22 02:47:26;;;;;;;;;;;;;;;;;;2196914;59;1262;-51
2022/09/22 02:50:01;;;;;;;;;;;;;;;;;;2195679;59;1511;-51
2022/09/22 02:52:34;;;;;;;;;;;;;;;;;;2195195;67;1118;-51
2022/09/22 02:55:08;;;;;;;;;;;;;;;;;;2195796;67;1979;-51
2022/09/22 02:57:42;;;;;;;;;;;;;;;;;;2195489;67;1247;-51
2022/09/22 03:00:15;;;;;;;;;;;;;;;;;;2196380;67;1206;-50
2022/09/22 03:02:51;;;;;;;;;;;;;;;;;;2194967;59;3214;-51
2022/09/22 03:05:24;;;;;;;;;;;;;;;;;;2196552;59;2472;-52
2022/09/22 03:07:58;;;;;;;;;;;;;;;;;;2195838;59;1357;-51
2022/09/22 03:10:31;;;;;;;;;;;;;;;;;;2196238;59;1243;-51
2022/09/22 03:13:04;;;;;;;;;;;;;;;;;;2196341;59;1477;-51
2022/09/22 03:15:37;;;;;;;;;;;;;;;;;;2195648;59;1925;-51
2022/09/22 03:18:13;;;;;;;;;;;;;;;;;;2196373;67;1165;-51
2022/09/22 03:20:46;;;;;;;;;;;;;;;;;;2195133;59;1287;-51
2022/09/22 03:23:19;;;;;;;;;;;;;;;;;;2195163;59;1333;-51
2022/09/22 03:25:52;;;;;;;;;;;;;;;;;;2195544;67;1240;-51
2022/09/22 03:28:26;;;;;;;;;;;;;;;;;;2195187;59;1514;-51
2022/09/22 03:30:59;;;;;;;;;;;;;;;;;;2196209;67;1215;-51
2022/09/22 03:33:35;;;;;;;;;;;;;;;;;;2195392;59;1213;-51
2022/09/22 03:36:08;;;;;;;;;;;;;;;;;;2196677;59;1229;-51
2022/09/22 03:38:42;;;;;;;;;;;;;;;;;;2197074;59;1270;-51
2022/09/22 03:41:16;;;;;;;;;;;;;;;;;;2197001;67;1090;-51
2022/09/22 03:43:49;;;;;;;;;;;;;;;;;;2198408;67;1693;-51
2022/09/22 03:46:23;;;;;;;;;;;;;;;;;;2197082;59;1247;-51
2022/09/22 03:48:59;;;;;;;;;;;;;;;;;;2196400;59;1342;-51
2022/09/22 03:51:33;;;;;;;;;;;;;;;;;;2195326;59;1513;-51
2022/09/22 03:54:06;;;;;;;;;;;;;;;;;;2194637;67;2029;-51
2022/09/22 03:56:39;;;;;;;;;;;;;;;;;;2195430;67;1220;-51
2022/09/22 03:59:12;;;;;;;;;;;;;;;;;;2196047;67;1148;-51
2022/09/22 04:01:46;;;;;;;;;;;;;;;;;;2195260;67;1088;-51
2022/09/22 04:04:22;;;;;;;;;;;;;;;;;;2195091;67;1276;-51
2022/09/22 04:06:55;;;;;;;;;;;;;;;;;;2195053;67;1350;-51
2022/09/22 04:09:28;;;;;;;;;;;;;;;;;;2195249;59;1218;-51
2022/09/22 04:12:01;;;;;;;;;;;;;;;;;;2195848;59;2083;-51
2022/09/22 04:14:34;;;;;;;;;;;;;;;;;;2194780;67;1927;-51
2022/09/22 04:17:07;;;;;;;;;;;;;;;;;;2195998;59;1661;-51
2022/09/22 04:19:43;;;;;;;;;;;;;;;;;;2196088;67;1157;-51
2022/09/22 04:22:17;;;;;;;;;;;;;;;;;;2196291;67;1097;-50
2022/09/22 04:24:50;;;;;;;;;;;;;;;;;;2194687;59;1690;-50
2022/09/22 04:27:23;;;;;;;;;;;;;;;;;;2195794;59;1501;-51
2022/09/22 04:29:56;;;;;;;;;;;;;;;;;;2194794;59;1335;-51
2022/09/22 04:32:29;;;;;;;;;;;;;;;;;;2195798;67;1115;-51
2022/09/22 04:35:05;;;;;;;;;;;;;;;;;;2194998;67;1926;-51
2022/09/22 04:37:39;;;;;;;;;;;;;;;;;;2195648;59;1214;-51
2022/09/22 04:40:12;;;;;;;;;;;;;;;;;;2195238;67;1260;-51
2022/09/22 04:42:46;;;;;;;;;;;;;;;;;;2194810;67;1100;-54
2022/09/22 04:45:19;;;;;;;;;;;;;;;;;;2194324;59;1265;-51
2022/09/22 04:47:54;;;;;;;;;;;;;;;;;;2195604;59;1302;-50
2022/09/22 04:50:30;;;;;;;;;;;;;;;;;;2196180;59;1453;-51
2022/09/22 04:53:03;;;;;;;;;;;;;;;;;;2195510;67;1103;-51
2022/09/22 04:55:36;;;;;;;;;;;;;;;;;;2194847;67;1990;-51
2022/09/22 04:58:10;;;;;;;;;;;;;;;;;;2196071;67;1225;-51
2022/09/22 05:00:43;;;;;;;;;;;;;;;;;;2194173;67;1090;-53
2022/09/22 05:03:17;;;;;;;;;;;;;;;;;;2194837;67;1123;-51
2022/09/22 05:05:54;;;;;;;;;;;;;;;;;;2195108;67;1330;-51
2022/09/22 05:08:27;;;;;;;;;;;;;;;;;;2195143;67;1117;-50
2022/09/22 05:11:00;;;;;;;;;;;;;;;;;;2196075;59;1183;-51
2022/09/22 05:13:34;;;;;;;;;;;;;;;;;;2195093;67;1200;-50
2022/09/22 05:16:07;;;;;;;;;;;;;;;;;;2195891;67;1934;-51
2022/09/22 05:18:40;;;;;;;;;;;;;;;;;;2195014;67;1239;-50
2022/09/22 05:21:17;;;;;;;;;;;;;;;;;;2195527;67;1174;-51
2022/09/22 05:23:50;;;;;;;;;;;;;;;;;;2195576;67;1397;-51
2022/09/22 05:26:23;;;;;;;;;;;;;;;;;;2195642;59;1493;-50
2022/09/22 05:28:57;;;;;;;;;;;;;;;;;;2195594;59;1198;-50
2022/09/22 05:31:30;;;;;;;;;;;;;;;;;;2195202;67;1236;-51
2022/09/22 05:34:03;;;;;;;;;;;;;;;;;;2196174;67;1219;-51
2022/09/22 05:36:39;;;;;;;;;;;;;;;;;;2195227;59;1993;-51
2022/09/22 05:39:12;;;;;;;;;;;;;;;;;;2195347;67;1057;-51
2022/09/22 05:41:48;;;;;;;;;;;;;;;;;;2195297;67;1123;-51
2022/09/22 05:44:22;;;;;;;;;;;;;;;;;;2195506;59;1225;-51
2022/09/22 05:46:55;;;;;;;;;;;;;;;;;;2196001;59;1600;-51
2022/09/22 05:49:28;;;;;;;;;;;;;;;;;;2195842;67;1243;-51
2022/09/22 05:52:04;;;;;;;;;;;;;;;;;;2195377;67;1595;-51
2022/09/22 05:54:37;;;;;;;;;;;;;;;;;;2194653;67;1934;-51
2022/09/22 05:57:11;;;;;;;;;;;;;;;;;;2195279;67;1124;-51
2022/09/22 05:59:44;;;;;;;;;;;;;;;;;;2195113;67;1102;-51
2022/09/22 06:02:17;;;;;;;;;;;;;;;;;;2194696;59;1206;-51
2022/09/22 06:04:50;;;;;;;;;;;;;;;;;;2194829;67;1255;-50
2022/09/22 06:07:26;;;;;;;;;;;;;;;;;;2196002;67;1232;-51
2022/09/22 06:09:59;;;;;;;;;;;;;;;;;;2196459;59;1207;-53
2022/09/22 06:12:32;;;;;;;;;;;;;;;;;;2195757;59;1202;-50
2022/09/22 06:15:06;;;;;;;;;;;;;;;;;;2195378;59;1979;-51
2022/09/22 06:17:39;;;;;;;;;;;;;;;;;;2195687;59;1175;-52
2022/09/22 06:20:12;;;;;;;;;;;;;;;;;;2195684;67;1212;-52
2022/09/22 06:22:48;;;;;;;;;;;;;;;;;;2195172;67;1082;-51
2022/09/22 06:25:22;;;;;;;;;;;;;;;;;;2194518;67;1452;-52
2022/09/22 06:28:03;;;;;;;;;;;;;;;;;;2197389;59;1493;-51
2022/09/22 06:30:38;;;;;;;;;;;;;;;;;;2194788;67;1171;-52
2022/09/22 06:33:12;;;;;;;;;;;;;;;;;;2194599;67;1143;-51
2022/09/22 06:35:46;;;;;;;;;;;;;;;;;;2195042;59;1977;-51
2022/09/22 06:38:22;;;;;;;;;;;;;;;;;;2195808;59;1258;-51
2022/09/22 06:40:59;;;;;;;;;;;;;;;;;;2194882;59;1125;-51
2022/09/22 06:43:36;;;;;;;;;;;;;;;;;;2194907;67;1113;-51
2022/09/22 06:46:10;;;;;;;;;;;;;;;;;;2194587;59;1251;-51
2022/09/22 06:48:44;;;;;;;;;;;;;;;;;;2196440;59;1275;-51
2022/09/22 06:51:17;;;;;;;;;;;;;;;;;;2195217;59;1454;-51
2022/09/22 06:53:53;;;;;;;;;;;;;;;;;;2196379;67;1211;-53
2022/09/22 06:56:28;;;;;;;;;;;;;;;;;;2193793;59;1912;-52
2022/09/22 06:59:01;;;;;;;;;;;;;;;;;;2195260;59;1611;-51
2022/09/22 07:01:34;;;;;;;;;;;;;;;;;;2197120;59;1708;-55
2022/09/22 07:04:08;;;;;;;;;;;;;;;;;;2197592;59;2003;-51
2022/09/22 07:06:42;;;;;;;;;;;;;;;;;;2195119;59;1248;-51
2022/09/22 07:09:18;;;;;;;;;;;;;;;;;;2196490;59;1691;-51
2022/09/22 07:11:52;;;;;;;;;;;;;;;;;;2195488;59;1832;-51
2022/09/22 07:14:25;;;;;;;;;;;;;;;;;;2196532;67;1163;-53
2022/09/22 07:16:58;;;;;;;;;;;;;;;;;;2194330;59;1933;-52
2022/09/22 07:19:35;;;;;;;;;;;;;;;;;;2195227;59;1749;-52
2022/09/22 07:22:08;;;;;;;;;;;;;;;;;;2195966;59;1720;-51
2022/09/22 07:24:44;;;;;;;;;;;;;;;;;;2195124;59;1314;-51
2022/09/22 07:27:24;;;;;;;;;;;;;;;;;;2195308;59;2261;-52
2022/09/22 07:29:57;;;;;;;;;;;;;;;;;;2196098;67;1135;-51
2022/09/22 07:32:34;;;;;;;;;;;;;;;;;;2195387;59;1193;-54
2022/09/22 07:35:07;;;;;;;;;;;;;;;;;;2192410;59;2059;-52
2022/09/22 07:37:40;;;;;;;;;;;;;;;;;;2194618;59;2386;-53
2022/09/22 07:40:16;;;;;;;;;;;;;;;;;;2195731;67;1083;-52
2022/09/22 07:42:50;;;;;;;;;;;;;;;;;;2195214;59;1571;-51
2022/09/22 07:45:23;;;;;;;;;;;;;;;;;;2195498;59;1164;-52
2022/09/22 07:50:45;;;;;;;;;;;;;;;;;;2193094;59;1582;-54
2022/09/22 07:53:18;;;;;;;;;;;;;;;;;;2197670;67;1241;-54
2022/09/22 07:55:55;;;;;;;;;;;;;;;;;;2196577;67;1979;-52
2022/09/22 07:58:29;;;;;;;;;;;;;;;;;;2195886;67;1121;-53
2022/09/22 08:01:06;;;;;;;;;;;;;;;;;;2195113;59;2235;-53
2022/09/22 08:03:40;;;;;;;;;;;;;;;;;;2194991;59;2008;-53
2022/09/22 08:06:14;;;;;;;;;;;;;;;;;;2197248;59;1760;-53
2022/09/22 08:08:51;;;;;;;;;;;;;;;;;;2198303;67;1263;-54
2022/09/22 08:11:28;;;;;;;;;;;;;;;;;;2197493;59;1260;-54
2022/09/22 08:14:02;;;;;;;;;;;;;;;;;;2195502;59;1201;-53
2022/09/22 08:16:38;;;;;;;;;;;;;;;;;;2197402;59;1930;-55
2022/09/22 08:19:12;;;;;;;;;;;;;;;;;;2195762;59;1792;-53
2022/09/22 08:21:46;;;;;;;;;;;;;;;;;;2195972;59;1252;-54
2022/09/22 08:24:21;;;;;;;;;;;;;;;;;;2196119;59;1543;-53
2022/09/22 08:26:57;;;;;;;;;;;;;;;;;;2196730;59;1509;-54
2022/09/22 08:29:30;;;;;;;;;;;;;;;;;;2196065;59;1452;-53
2022/09/22 08:32:03;;;;;;;;;;;;;;;;;;2195845;59;1815;-54
2022/09/22 08:34:36;;;;;;;;;;;;;;;;;;2196091;67;1250;-53
2022/09/22 08:37:09;;;;;;;;;;;;;;;;;;2197176;59;1933;-55
2022/09/22 08:39:43;;;;;;;;;;;;;;;;;;2195276;67;1188;-54
2022/09/22 08:42:20;;;;;;;;;;;;;;;;;;2196900;67;1616;-54
2022/09/22 08:44:57;;;;;;;;;;;;;;;;;;2197042;59;1832;-56
2022/09/22 08:53:15;;;;;;;;;;;;;;;;;;2196376;60;1638;-54
2022/09/22 08:55:51;;;;;;;;;;;;;;;;;;2196172;59;1938;-56
2022/09/22 08:58:42;;;;;;;;;;;;;;;;;;2196946;67;1243;-54
2022/09/22 09:01:22;;;;;;;;;;;;;;;;;;2195905;60;2489;-55
2022/09/22 09:03:59;;;;;;;;;;;;;;;;;;2195670;59;2138;-55
2022/09/22 09:06:36;;;;;;;;;;;;;;;;;;2196902;67;1317;-54
2022/09/22 09:09:14;;;;;;;;;;;;;;;;;;2198714;59;1614;-54
2022/09/22 09:11:56;;;;;;;;;;;;;;;;;;2195850;59;1202;-54
2022/09/22 09:14:45;;;;;;;;;;;;;;;;;;2195582;67;1251;-56
2022/09/22 09:17:24;;;;;;;;;;;;;;;;;;2197281;59;2788;-54
2022/09/22 09:20:01;;;;;;;;;;;;;;;;;;2195024;59;2178;-53
2022/09/22 09:22:37;;;;;;;;;;;;;;;;;;2196216;67;1023;-54
2022/09/22 09:25:17;;;;;;;;;;;;;;;;;;2196548;59;1852;-54
2022/09/22 09:27:53;;;;;;;;;;;;;;;;;;2195778;59;1663;-54
2022/09/22 09:30:26;;;;;;;;;;;;;;;;;;2197042;59;1683;-54
2022/09/22 09:33:03;;;;;;;;;;;;;;;;;;2197851;67;1233;-54
2022/09/22 09:35:38;;;;;;;;;;;;;;;;;;2197469;59;1251;-56
2022/09/22 09:38:14;;;;;;;;;;;;;;;;;;2196765;59;1936;-53
2022/09/22 09:40:53;;;;;;;;;;;;;;;;;;2196870;67;1115;-54
2022/09/22 09:43:27;;;;;;;;;;;;;;;;;;2196789;67;1262;-55
2022/09/22 09:46:07;;;;;;;;;;;;;;;;;;2196593;59;1257;-53
2022/09/22 09:48:46;;;;;;;;;;;;;;;;;;2197239;59;1289;-53
2022/09/22 09:51:19;;;;;;;;;;;;;;;;;;2196239;59;1519;-54
2022/09/22 09:53:52;;;;;;;;;;;;;;;;;;2197962;67;1103;-55
2022/09/22 09:56:27;;;;;;;;;;;;;;;;;;2197176;59;1979;-54
2022/09/22 10:01:51;;;;;;;;;;;;;;;;;;2195214;59;2665;-54
2022/09/22 10:04:33;;;;;;;;;;;;;;;;;;2195831;59;2468;-55
2022/09/22 10:07:15;;;;;;;;;;;;;;;;;;2196697;67;1173;-53
2022/09/22 10:09:49;;;;;;;;;;;;;;;;;;2197523;67;1305;-53
2022/09/22 10:12:24;;;;;;;;;;;;;;;;;;2200019;67;1276;-54
2022/09/22 10:14:58;;;;;;;;;;;;;;;;;;2198811;67;1306;-53
2022/09/22 10:17:33;;;;;;;;;;;;;;;;;;2198349;59;1936;-52
2022/09/22 10:20:25;;;;;;;;;;;;;;;;;;2198956;67;1042;-54
2022/09/22 10:22:58;;;;;;;;;;;;;;;;;;2200107;67;1078;-54
2022/09/22 10:25:32;;;;;;;;;;;;;;;;;;2196050;59;1573;-56
2022/09/22 10:28:08;;;;;;;;;;;;;;;;;;2196920;59;1431;-53
2022/09/22 10:30:42;;;;;;;;;;;;;;;;;;2196002;67;1065;-54
2022/09/22 10:33:17;;;;;;;;;;;;;;;;;;2196844;67;1166;-56
2022/09/22 10:36:04;;;;;;;;;;;;;;;;;;2196897;59;1715;-54
2022/09/22 10:38:39;;;;;;;;;;;;;;;;;;2196467;59;1923;-52
2022/09/22 10:41:15;;;;;;;;;;;;;;;;;;2197422;67;998;-55
2022/09/22 10:43:49;;;;;;;;;;;;;;;;;;2197484;59;1422;-53
2022/09/22 10:46:31;;;;;;;;;;;;;;;;;;2198967;59;1264;-57
2022/09/22 10:49:07;;;;;;;;;;;;;;;;;;2196596;59;1318;-54
2022/09/22 10:51:53;;;;;;;;;;;;;;;;;;2197123;59;1557;-54
2022/09/22 10:54:34;;;;;;;;;;;;;;;;;;2194436;59;1741;-56
2022/09/22 10:57:12;;;;;;;;;;;;;;;;;;2196666;59;1941;-53
2022/09/22 10:59:54;;;;;;;;;;;;;;;;;;2196410;59;1747;-55
2022/09/22 11:02:57;;;;;;;;;;;;;;;;;;2197069;59;2326;-54
2022/09/22 11:14:12;;;;;;;;;;;;;;;;;;2197474;67;1135;-53
2022/09/22 11:16:59;;;;;;;;;;;;;;;;;;2196542;59;1979;-55
2022/09/22 11:19:46;;;;;;;;;;;;;;;;;;2196640;67;1214;-55
2022/09/22 11:22:27;;;;;;;;;;;;;;;;;;2196923;67;1091;-53
2022/09/22 11:25:09;;;;;;;;;;;;;;;;;;2198418;59;1283;-53
2022/09/22 11:27:50;;;;;;;;;;;;;;;;;;2195675;59;1637;-53
2022/09/22 11:30:23;;;;;;;;;;;;;;;;;;2197186;67;1266;-53
2022/09/22 11:33:14;;;;;;;;;;;;;;;;;;2198603;67;1096;-56
2022/09/22 11:36:03;;;;;;;;;;;;;;;;;;2198676;59;1415;-55
2022/09/22 11:39:06;;;;;;;;;;;;;;;;;;2197765;67;1992;-56
2022/09/22 11:41:47;;;;;;;;;;;;;;;;;;2201177;59;1231;-55
2022/09/22 11:44:29;;;;;;;;;;;;;;;;;;2198168;59;2996;-55
2022/09/22 11:47:12;;;;;;;;;;;;;;;;;;2196969;59;1882;-55
2022/09/22 11:49:58;;;;;;;;;;;;;;;;;;2197070;67;1224;-53
2022/09/22 11:52:41;;;;;;;;;;;;;;;;;;2196680;59;1793;-55
2022/09/22 11:55:23;;;;;;;;;;;;;;;;;;2196665;67;1271;-56
2022/09/22 11:58:01;;;;;;;;;;;;;;;;;;2198015;59;2000;-55
2022/09/22 12:00:37;;;;;;;;;;;;;;;;;;2196972;59;2170;-53
2022/09/22 12:03:13;;;;;;;;;;;;;;;;;;2196967;59;1604;-53
2022/09/22 12:05:49;;;;;;;;;;;;;;;;;;2196161;59;2796;-54
2022/09/22 12:08:24;;;;;;;;;;;;;;;;;;2196660;59;1745;-52
2022/09/22 12:10:58;;;;;;;;;;;;;;;;;;2197899;59;1121;-52
2022/09/22 12:13:35;;;;;;;;;;;;;;;;;;2196691;67;1133;-52
2022/09/22 12:16:11;;;;;;;;;;;;;;;;;;2196003;59;1780;-53
2022/09/22 12:18:47;;;;;;;;;;;;;;;;;;2195943;59;1929;-52
2022/09/22 12:21:25;;;;;;;;;;;;;;;;;;2196052;59;1720;-54
2022/09/22 12:24:01;;;;;;;;;;;;;;;;;;2196649;59;1518;-55
2022/09/22 12:26:35;;;;;;;;;;;;;;;;;;2196716;59;1788;-54
2022/09/22 12:29:23;;;;;;;;;;;;;;;;;;2196267;59;1871;-52
2022/09/22 12:31:57;;;;;;;;;;;;;;;;;;2196965;67;995;-52
2022/09/22 12:34:34;;;;;;;;;;;;;;;;;;2197691;59;1358;-53
2022/09/22 12:37:11;;;;;;;;;;;;;;;;;;2196515;59;1939;-52
2022/09/22 12:39:46;;;;;;;;;;;;;;;;;;2197675;67;1241;-54
2022/09/22 12:42:21;;;;;;;;;;;;;;;;;;2197363;67;1146;-54
2022/09/22 12:44:59;;;;;;;;;;;;;;;;;;2197395;59;1290;-52
2022/09/22 12:47:35;;;;;;;;;;;;;;;;;;2198693;59;1221;-53
2022/09/22 12:50:28;;;;;;;;;;;;;;;;;;2196764;67;1114;-56
2022/09/22 12:53:06;;;;;;;;;;;;;;;;;;2197316;67;1243;-53
2022/09/22 12:55:40;;;;;;;;;;;;;;;;;;2197178;67;1253;-52
2022/09/22 12:58:32;;;;;;;;;;;;;;;;;;2197020;59;1938;-51
2022/09/22 13:01:20;;;;;;;;;;;;;;;;;;2195399;59;1749;-52
2022/09/22 13:04:04;;;;;;;;;;;;;;;;;;2196803;59;2272;-54
2022/09/22 13:06:55;;;;;;;;;;;;;;;;;;2195917;59;2587;-52
2022/09/22 13:09:29;;;;;;;;;;;;;;;;;;2197029;67;1087;-53
2022/09/22 13:12:21;;;;;;;;;;;;;;;;;;2196464;67;1294;-52
2022/09/22 13:14:58;;;;;;;;;;;;;;;;;;2197547;67;1301;-53
2022/09/22 13:17:35;;;;;;;;;;;;;;;;;;2198440;59;1933;-53
2022/09/22 13:20:21;;;;;;;;;;;;;;;;;;2197557;59;1699;-52
2022/09/22 13:22:55;;;;;;;;;;;;;;;;;;2196653;59;1549;-52
2022/09/22 13:25:30;;;;;;;;;;;;;;;;;;2196874;67;1244;-53
2022/09/22 13:28:04;;;;;;;;;;;;;;;;;;2197595;67;1269;-53
2022/09/22 13:30:39;;;;;;;;;;;;;;;;;;2199219;59;1140;-52
2022/09/22 13:33:22;;;;;;;;;;;;;;;;;;2199372;59;1543;-52
2022/09/22 13:36:01;;;;;;;;;;;;;;;;;;2199169;59;1323;-51
2022/09/22 13:38:36;;;;;;;;;;;;;;;;;;2198890;67;1927;-52
2022/09/22 13:41:13;;;;;;;;;;;;;;;;;;2199398;59;1972;-52
2022/09/22 13:43:49;;;;;;;;;;;;;;;;;;2195382;67;1616;-53
2022/09/22 13:46:25;;;;;;;;;;;;;;;;;;2196798;59;1362;-53
2022/09/22 13:48:59;;;;;;;;;;;;;;;;;;2197104;59;1186;-53
2022/09/22 13:51:35;;;;;;;;;;;;;;;;;;2196474;67;1115;-52
2022/09/22 13:54:09;;;;;;;;;;;;;;;;;;2196322;67;1066;-52
2022/09/22 13:56:42;;;;;;;;;;;;;;;;;;2195615;59;1717;-52
2022/09/22 13:59:17;;;;;;;;;;;;;;;;;;2196948;59;1936;-53
2022/09/22 14:01:51;;;;;;;;;;;;;;;;;;2197961;59;1356;-55
2022/09/22 14:04:26;;;;;;;;;;;;;;;;;;2196563;59;1803;-56
2022/09/22 14:07:04;;;;;;;;;;;;;;;;;;2195024;59;2174;-54
2022/09/22 14:09:39;;;;;;;;;;;;;;;;;;2197417;59;1181;-55
2022/09/22 14:12:13;;;;;;;;;;;;;;;;;;2199511;67;1031;-56
2022/09/22 14:14:46;;;;;;;;;;;;;;;;;;2197869;59;2011;-55
2022/09/22 14:17:21;;;;;;;;;;;;;;;;;;2198465;59;1213;-55
2022/09/22 14:19:57;;;;;;;;;;;;;;;;;;2196853;67;1931;-54
2022/09/22 14:22:34;;;;;;;;;;;;;;;;;;2198185;67;1217;-55
2022/09/22 14:25:08;;;;;;;;;;;;;;;;;;2198370;59;1280;-56
2022/09/22 14:27:47;;;;;;;;;;;;;;;;;;2196352;59;1591;-58
2022/09/22 14:30:21;;;;;;;;;;;;;;;;;;2197439;67;1167;-55
2022/09/22 14:32:56;;;;;;;;;;;;;;;;;;2197249;59;1708;-56
2022/09/22 14:35:31;;;;;;;;;;;;;;;;;;2197755;59;1264;-55
2022/09/22 14:38:09;;;;;;;;;;;;;;;;;;2198462;67;1932;-58
2022/09/22 14:40:52;;;;;;;;;;;;;;;;;;2197579;67;1123;-55
2022/09/22 14:43:27;;;;;;;;;;;;;;;;;;2197651;67;1245;-54
2022/09/22 14:46:01;;;;;;;;;;;;;;;;;;2197618;59;1199;-54
2022/09/22 14:48:35;;;;;;;;;;;;;;;;;;2199388;59;1162;-55
2022/09/22 14:51:09;;;;;;;;;;;;;;;;;;2199783;67;1212;-54
2022/09/22 14:53:48;;;;;;;;;;;;;;;;;;2196185;59;2078;-54
2022/09/22 14:56:26;;;;;;;;;;;;;;;;;;2197114;59;1356;-56
2022/09/22 14:59:00;;;;;;;;;;;;;;;;;;2197832;67;1999;-55
2022/09/22 15:04:25;;;;;;;;;;;;;;;;;;2195609;59;1704;-55
2022/09/22 15:06:59;;;;;;;;;;;;;;;;;;2196813;59;2178;-55
2022/09/22 15:09:37;;;;;;;;;;;;;;;;;;2197116;59;2326;-54
2022/09/22 15:12:34;;;;;;;;;;;;;;;;;;2197584;59;1849;-54
2022/09/22 15:15:17;;;;;;;;;;;;;;;;;;2195667;59;2290;-54
2022/09/22 15:20:43;;;;;;;;;;;;;;;;;;2198392;59;1179;-54
2022/09/22 15:23:17;;;;;;;;;;;;;;;;;;2198587;59;1154;-55
2022/09/22 15:25:54;;;;;;;;;;;;;;;;;;2198638;67;1228;-55
2022/09/22 15:28:27;;;;;;;;;;;;;;;;;;2197619;67;1266;-55
2022/09/22 15:31:01;;;;;;;;;;;;;;;;;;2197631;67;1292;-54
2022/09/22 15:33:34;;;;;;;;;;;;;;;;;;2196806;59;2094;-55
2022/09/22 15:36:14;;;;;;;;;;;;;;;;;;2197997;59;1288;-55
2022/09/22 15:38:47;;;;;;;;;;;;;;;;;;2198002;67;2000;-56
2022/09/22 15:41:23;;;;;;;;;;;;;;;;;;2197350;59;1122;-54
2022/09/22 15:43:57;;;;;;;;;;;;;;;;;;2198083;67;1110;-54
2022/09/22 15:46:32;;;;;;;;;;;;;;;;;;2197479;59;1239;-56
2022/09/22 15:49:07;;;;;;;;;;;;;;;;;;2200734;59;1676;-56
2022/09/22 15:51:41;;;;;;;;;;;;;;;;;;2197754;67;1021;-54
2022/09/22 15:54:15;;;;;;;;;;;;;;;;;;2196944;59;1954;-54
2022/09/22 15:56:52;;;;;;;;;;;;;;;;;;2196666;59;1667;-54
2022/09/22 15:59:27;;;;;;;;;;;;;;;;;;2197657;67;1936;-54
2022/09/22 16:02:01;;;;;;;;;;;;;;;;;;2197428;59;1198;-55
2022/09/22 16:04:35;;;;;;;;;;;;;;;;;;2198196;60;1314;-54
2022/09/22 16:07:12;;;;;;;;;;;;;;;;;;2197301;67;1036;-54
2022/09/22 16:09:46;;;;;;;;;;;;;;;;;;2196023;59;2701;-54
2022/09/22 16:12:24;;;;;;;;;;;;;;;;;;2197332;59;1735;-54
2022/09/22 16:14:58;;;;;;;;;;;;;;;;;;2198757;67;1314;-54
2022/09/22 16:17:31;;;;;;;;;;;;;;;;;;2198153;67;1287;-54
2022/09/22 16:20:04;;;;;;;;;;;;;;;;;;2199481;67;1932;-55
2022/09/22 16:22:39;;;;;;;;;;;;;;;;;;2198309;59;1106;-54
2022/09/22 16:25:14;;;;;;;;;;;;;;;;;;2197431;67;1281;-57
2022/09/22 16:27:50;;;;;;;;;;;;;;;;;;2201514;67;1191;-54
2022/09/22 16:30:23;;;;;;;;;;;;;;;;;;2196730;67;1132;-54
2022/09/22 16:32:56;;;;;;;;;;;;;;;;;;2197583;59;1830;-55
2022/09/22 16:35:30;;;;;;;;;;;;;;;;;;2197806;59;1254;-54
2022/09/22 16:38:03;;;;;;;;;;;;;;;;;;2196195;67;1201;-53
2022/09/22 16:40:36;;;;;;;;;;;;;;;;;;2198092;67;1924;-55
2022/09/22 16:43:12;;;;;;;;;;;;;;;;;;2197848;59;1209;-54
2022/09/22 16:48:37;;;;;;;;;;;;;;;;;;2200038;59;1221;-53
2022/09/22 16:51:12;;;;;;;;;;;;;;;;;;2197379;67;1112;-54
2022/09/22 16:53:51;;;;;;;;;;;;;;;;;;2195917;59;1722;-53
2022/09/22 16:56:26;;;;;;;;;;;;;;;;;;2196544;59;1787;-57
2022/09/22 16:59:02;;;;;;;;;;;;;;;;;;2198889;67;1916;-53
2022/09/22 17:01:37;;;;;;;;;;;;;;;;;;2195488;59;1870;-54
2022/09/22 17:04:11;;;;;;;;;;;;;;;;;;2194181;59;1756;-54
2022/09/22 17:06:44;;;;;;;;;;;;;;;;;;2194267;59;1712;-54
2022/09/22 17:09:18;;;;;;;;;;;;;;;;;;2195904;59;2230;-56
2022/09/22 17:11:52;;;;;;;;;;;;;;;;;;2194919;59;1647;-54
2022/09/22 17:14:29;;;;;;;;;;;;;;;;;;2196272;59;1273;-55
2022/09/22 17:17:05;;;;;;;;;;;;;;;;;;2196432;59;1255;-54
2022/09/22 17:19:38;;;;;;;;;;;;;;;;;;2196098;59;1945;-54
2022/09/22 17:22:11;;;;;;;;;;;;;;;;;;2195232;59;1640;-53
2022/09/22 17:24:44;;;;;;;;;;;;;;;;;;2195499;59;1523;-54
2022/09/22 17:27:17;;;;;;;;;;;;;;;;;;2196391;59;1926;-53
2022/09/22 17:29:53;;;;;;;;;;;;;;;;;;2196751;67;1130;-54
2022/09/22 17:32:28;;;;;;;;;;;;;;;;;;2195611;59;1748;-53
2022/09/22 17:35:01;;;;;;;;;;;;;;;;;;2195995;59;1321;-56
2022/09/22 17:37:36;;;;;;;;;;;;;;;;;;2195552;59;1782;-53
2022/09/22 17:40:10;;;;;;;;;;;;;;;;;;2195771;67;1987;-53
2022/09/22 17:42:43;;;;;;;;;;;;;;;;;;2194145;59;1803;-54
2022/09/22 17:45:19;;;;;;;;;;;;;;;;;;2194718;59;1474;-54
2022/09/22 17:56:21;;;;;;;;;;;;;;;;;;2195163;67;1305;-54
2022/09/22 17:58:54;;;;;;;;;;;;;;;;;;2196809;59;1925;-54
2022/09/22 18:01:30;;;;;;;;;;;;;;;;;;2196399;67;1245;-54
2022/09/22 18:04:03;;;;;;;;;;;;;;;;;;2196284;59;1727;-53
2022/09/22 18:06:37;;;;;;;;;;;;;;;;;;2197364;67;1310;-53
2022/09/22 18:09:10;;;;;;;;;;;;;;;;;;2194517;59;1818;-53
2022/09/22 18:11:43;;;;;;;;;;;;;;;;;;2198063;59;1585;-53
2022/09/22 18:14:16;;;;;;;;;;;;;;;;;;2195281;59;1923;-53
2022/09/22 18:16:52;;;;;;;;;;;;;;;;;;2195204;59;1323;-55
2022/09/22 18:19:27;;;;;;;;;;;;;;;;;;2196640;59;2261;-54
2022/09/22 18:22:01;;;;;;;;;;;;;;;;;;2195005;59;1855;-53
2022/09/22 18:24:34;;;;;;;;;;;;;;;;;;2196504;67;1231;-53
2022/09/22 18:27:08;;;;;;;;;;;;;;;;;;2196571;59;1175;-53
2022/09/22 18:29:41;;;;;;;;;;;;;;;;;;2195152;67;1754;-55
2022/09/22 18:32:18;;;;;;;;;;;;;;;;;;2194503;59;1876;-53
2022/09/22 18:34:52;;;;;;;;;;;;;;;;;;2195967;59;1494;-53
2022/09/22 18:37:26;;;;;;;;;;;;;;;;;;2196638;59;1216;-53
2022/09/22 18:39:59;;;;;;;;;;;;;;;;;;2194572;59;1938;-54
2022/09/22 18:42:35;;;;;;;;;;;;;;;;;;2196072;67;1025;-55
2022/09/22 18:45:09;;;;;;;;;;;;;;;;;;2195570;59;1255;-53
2022/09/22 18:47:45;;;;;;;;;;;;;;;;;;2197098;59;1641;-53
2022/09/22 18:50:19;;;;;;;;;;;;;;;;;;2197270;67;1106;-54
2022/09/22 18:52:55;;;;;;;;;;;;;;;;;;2195911;67;1191;-53
2022/09/22 18:55:31;;;;;;;;;;;;;;;;;;2196162;67;1247;-54
2022/09/22 18:58:04;;;;;;;;;;;;;;;;;;2196580;59;1195;-54
2022/09/22 19:00:37;;;;;;;;;;;;;;;;;;2191806;59;1982;-53
2022/09/22 19:03:13;;;;;;;;;;;;;;;;;;2195936;67;1800;-53
2022/09/22 19:05:46;;;;;;;;;;;;;;;;;;2196543;59;1743;-53
2022/09/22 19:08:19;;;;;;;;;;;;;;;;;;2194725;59;2692;-54
2022/09/22 19:10:52;;;;;;;;;;;;;;;;;;2194398;59;2211;-54
2022/09/22 19:13:27;;;;;;;;;;;;;;;;;;2197367;67;1104;-53
2022/09/22 19:16:00;;;;;;;;;;;;;;;;;;2196607;59;1509;-53
2022/09/22 19:18:37;;;;;;;;;;;;;;;;;;2195735;59;1769;-53
2022/09/22 19:21:12;;;;;;;;;;;;;;;;;;2195550;59;1931;-53
2022/09/22 19:23:45;;;;;;;;;;;;;;;;;;2195549;59;1451;-53
2022/09/22 19:26:18;;;;;;;;;;;;;;;;;;2196555;67;1252;-53
2022/09/22 19:28:52;;;;;;;;;;;;;;;;;;2196128;67;1956;-53
2022/09/22 19:31:25;;;;;;;;;;;;;;;;;;2195807;67;1248;-54
2022/09/22 19:34:01;;;;;;;;;;;;;;;;;;2195840;67;1082;-53
2022/09/22 19:36:35;;;;;;;;;;;;;;;;;;2195853;59;1628;-54
2022/09/22 19:39:09;;;;;;;;;;;;;;;;;;2195842;67;1119;-53
2022/09/22 19:41:46;;;;;;;;;;;;;;;;;;2194846;59;1930;-53
2022/09/22 19:44:20;;;;;;;;;;;;;;;;;;2196071;59;1189;-53
2022/09/22 19:46:53;;;;;;;;;;;;;;;;;;2196318;59;1226;-53
2022/09/22 19:49:30;;;;;;;;;;;;;;;;;;2196489;67;1152;-53
2022/09/22 19:52:03;;;;;;;;;;;;;;;;;;2197998;59;1292;-53
2022/09/22 19:54:36;;;;;;;;;;;;;;;;;;2194868;59;2297;-53
2022/09/22 19:57:09;;;;;;;;;;;;;;;;;;2196645;67;1119;-53
2022/09/22 19:59:43;;;;;;;;;;;;;;;;;;2193961;59;1939;-53
2022/09/22 20:02:17;;;;;;;;;;;;;;;;;;2197609;59;1149;-54
2022/09/22 20:04:54;;;;;;;;;;;;;;;;;;2197066;59;1317;-53
2022/09/22 20:07:28;;;;;;;;;;;;;;;;;;2194981;59;1666;-53
2022/09/22 20:10:01;;;;;;;;;;;;;;;;;;2197131;59;2309;-53
2022/09/22 20:12:34;;;;;;;;;;;;;;;;;;2196485;67;2387;-54
2022/09/22 20:15:08;;;;;;;;;;;;;;;;;;2194987;59;2532;-53
2022/09/22 20:17:42;;;;;;;;;;;;;;;;;;2196689;59;1377;-55
2022/09/22 20:20:19;;;;;;;;;;;;;;;;;;2196247;67;1993;-53
2022/09/22 20:22:56;;;;;;;;;;;;;;;;;;2195659;59;1022;-53